sensor_id;sensor_type;location;lat;lon;timestamp;P1;durP1;ratioP1;P2;durP2;ratioP2
27013;SDS011;14556;52.222;4.510;2023-08-01T00:02:15;4.47;;;1.90;;
27013;SDS011;14556;52.222;4.510;2023-08-01T00:04:42;7.80;;;2.80;;
27013;SDS011;14556;52.222;4.510;2023-08-01T00:07:11;4.77;;;2.00;;
27013;SDS011;14556;52.222;4.510;2023-08-01T00:09:37;4.30;;;2.07;;
27013;SDS011;14556;52.222;4.510;2023-08-01T00:12:04;4.97;;;2.00;;
27013;SDS011;14556;52.222;4.510;2023-08-01T00:14:31;5.00;;;1.63;;
27013;SDS011;14556;52.222;4.510;2023-08-01T00:16:58;4.13;;;1.27;;
27013;SDS011;14556;52.222;4.510;2023-08-01T00:19:25;4.53;;;1.80;;
27013;SDS011;14556;52.222;4.510;2023-08-01T00:21:54;4.27;;;2.00;;
27013;SDS011;14556;52.222;4.510;2023-08-01T00:24:21;4.13;;;2.00;;
27013;SDS011;14556;52.222;4.510;2023-08-01T00:26:48;5.20;;;1.83;;
27013;SDS011;14556;52.222;4.510;2023-08-01T00:29:14;5.93;;;2.13;;
27013;SDS011;14556;52.222;4.510;2023-08-01T00:31:42;4.27;;;1.80;;
27013;SDS011;14556;52.222;4.510;2023-08-01T00:34:08;8.97;;;2.07;;
27013;SDS011;14556;52.222;4.510;2023-08-01T00:36:35;4.90;;;1.87;;
27013;SDS011;14556;52.222;4.510;2023-08-01T00:39:01;3.90;;;1.80;;
27013;SDS011;14556;52.222;4.510;2023-08-01T00:41:28;4.23;;;2.00;;
27013;SDS011;14556;52.222;4.510;2023-08-01T00:43:54;4.20;;;1.70;;
27013;SDS011;14556;52.222;4.510;2023-08-01T00:46:23;4.10;;;1.70;;
27013;SDS011;14556;52.222;4.510;2023-08-01T00:48:50;4.20;;;1.97;;
27013;SDS011;14556;52.222;4.510;2023-08-01T00:51:17;6.13;;;2.10;;
27013;SDS011;14556;52.222;4.510;2023-08-01T00:53:45;5.87;;;2.30;;
27013;SDS011;14556;52.222;4.510;2023-08-01T00:56:12;6.50;;;2.30;;
27013;SDS011;14556;52.222;4.510;2023-08-01T00:58:39;4.83;;;1.87;;
27013;SDS011;14556;52.222;4.510;2023-08-01T01:01:06;5.53;;;1.63;;
27013;SDS011;14556;52.222;4.510;2023-08-01T01:03:32;6.77;;;1.87;;
27013;SDS011;14556;52.222;4.510;2023-08-01T01:06:02;4.80;;;2.03;;
27013;SDS011;14556;52.222;4.510;2023-08-01T01:08:36;2.80;;;1.57;;
27013;SDS011;14556;52.222;4.510;2023-08-01T01:11:03;5.90;;;2.20;;
27013;SDS011;14556;52.222;4.510;2023-08-01T01:13:31;3.50;;;1.90;;
27013;SDS011;14556;52.222;4.510;2023-08-01T01:15:57;2.93;;;1.80;;
27013;SDS011;14556;52.222;4.510;2023-08-01T01:18:25;3.27;;;1.37;;
27013;SDS011;14556;52.222;4.510;2023-08-01T01:20:52;2.57;;;1.20;;
27013;SDS011;14556;52.222;4.510;2023-08-01T01:23:18;5.70;;;1.90;;
27013;SDS011;14556;52.222;4.510;2023-08-01T01:25:55;1.87;;;1.13;;
27013;SDS011;14556;52.222;4.510;2023-08-01T01:28:24;5.83;;;1.57;;
27013;SDS011;14556;52.222;4.510;2023-08-01T01:30:53;4.30;;;1.07;;
27013;SDS011;14556;52.222;4.510;2023-08-01T01:33:21;2.93;;;1.10;;
27013;SDS011;14556;52.222;4.510;2023-08-01T01:35:49;3.10;;;1.10;;
27013;SDS011;14556;52.222;4.510;2023-08-01T01:38:15;2.30;;;1.00;;
27013;SDS011;14556;52.222;4.510;2023-08-01T01:40:42;1.77;;;0.80;;
27013;SDS011;14556;52.222;4.510;2023-08-01T01:43:08;4.10;;;1.20;;
27013;SDS011;14556;52.222;4.510;2023-08-01T01:45:36;1.83;;;1.00;;
27013;SDS011;14556;52.222;4.510;2023-08-01T01:48:02;3.70;;;1.63;;
27013;SDS011;14556;52.222;4.510;2023-08-01T01:50:31;1.13;;;0.90;;
27013;SDS011;14556;52.222;4.510;2023-08-01T01:52:58;3.93;;;1.20;;
27013;SDS011;14556;52.222;4.510;2023-08-01T01:55:24;2.70;;;1.30;;
27013;SDS011;14556;52.222;4.510;2023-08-01T01:57:51;3.27;;;0.97;;
27013;SDS011;14556;52.222;4.510;2023-08-01T02:00:17;7.10;;;1.40;;
27013;SDS011;14556;52.222;4.510;2023-08-01T02:02:44;2.60;;;1.00;;
27013;SDS011;14556;52.222;4.510;2023-08-01T02:05:11;5.97;;;1.30;;
27013;SDS011;14556;52.222;4.510;2023-08-01T02:07:37;2.53;;;1.60;;
27013;SDS011;14556;52.222;4.510;2023-08-01T02:10:05;2.60;;;1.50;;
27013;SDS011;14556;52.222;4.510;2023-08-01T02:12:32;5.20;;;1.77;;
27013;SDS011;14556;52.222;4.510;2023-08-01T02:15:02;2.93;;;2.00;;
27013;SDS011;14556;52.222;4.510;2023-08-01T02:17:29;7.03;;;2.00;;
27013;SDS011;14556;52.222;4.510;2023-08-01T02:19:56;5.57;;;2.07;;
27013;SDS011;14556;52.222;4.510;2023-08-01T02:22:24;3.13;;;1.77;;
27013;SDS011;14556;52.222;4.510;2023-08-01T02:24:51;5.47;;;1.83;;
27013;SDS011;14556;52.222;4.510;2023-08-01T02:27:17;7.30;;;2.20;;
27013;SDS011;14556;52.222;4.510;2023-08-01T02:29:44;4.20;;;2.43;;
27013;SDS011;14556;52.222;4.510;2023-08-01T02:32:11;3.90;;;2.17;;
27013;SDS011;14556;52.222;4.510;2023-08-01T02:34:37;6.80;;;1.90;;
27013;SDS011;14556;52.222;4.510;2023-08-01T02:37:04;5.87;;;2.10;;
27013;SDS011;14556;52.222;4.510;2023-08-01T02:39:31;5.97;;;1.90;;
27013;SDS011;14556;52.222;4.510;2023-08-01T02:41:58;4.83;;;1.87;;
27013;SDS011;14556;52.222;4.510;2023-08-01T02:44:25;4.80;;;1.83;;
27013;SDS011;14556;52.222;4.510;2023-08-01T02:46:52;4.97;;;2.00;;
27013;SDS011;14556;52.222;4.510;2023-08-01T02:49:19;8.53;;;2.10;;
27013;SDS011;14556;52.222;4.510;2023-08-01T02:51:45;3.97;;;1.90;;
27013;SDS011;14556;52.222;4.510;2023-08-01T02:54:12;5.60;;;2.13;;
27013;SDS011;14556;52.222;4.510;2023-08-01T02:56:38;4.43;;;2.10;;
27013;SDS011;14556;52.222;4.510;2023-08-01T02:59:08;4.40;;;2.17;;
27013;SDS011;14556;52.222;4.510;2023-08-01T03:01:37;4.17;;;2.30;;
27013;SDS011;14556;52.222;4.510;2023-08-01T03:04:04;4.97;;;2.17;;
27013;SDS011;14556;52.222;4.510;2023-08-01T03:06:32;6.03;;;2.20;;
27013;SDS011;14556;52.222;4.510;2023-08-01T03:09:00;7.37;;;2.57;;
27013;SDS011;14556;52.222;4.510;2023-08-01T03:11:27;5.40;;;2.40;;
27013;SDS011;14556;52.222;4.510;2023-08-01T03:13:54;4.87;;;2.00;;
27013;SDS011;14556;52.222;4.510;2023-08-01T03:16:21;8.23;;;2.07;;
27013;SDS011;14556;52.222;4.510;2023-08-01T03:18:47;4.20;;;2.37;;
27013;SDS011;14556;52.222;4.510;2023-08-01T03:21:14;5.03;;;2.17;;
27013;SDS011;14556;52.222;4.510;2023-08-01T03:23:42;9.17;;;2.50;;
27013;SDS011;14556;52.222;4.510;2023-08-01T03:26:09;10.03;;;2.40;;
27013;SDS011;14556;52.222;4.510;2023-08-01T03:28:35;4.87;;;2.80;;
27013;SDS011;14556;52.222;4.510;2023-08-01T03:31:02;7.10;;;2.60;;
27013;SDS011;14556;52.222;4.510;2023-08-01T03:33:28;7.27;;;2.03;;
27013;SDS011;14556;52.222;4.510;2023-08-01T03:35:55;3.97;;;2.20;;
27013;SDS011;14556;52.222;4.510;2023-08-01T03:38:23;9.40;;;2.30;;
27013;SDS011;14556;52.222;4.510;2023-08-01T03:40:50;3.30;;;1.90;;
27013;SDS011;14556;52.222;4.510;2023-08-01T03:43:17;6.47;;;2.53;;
27013;SDS011;14556;52.222;4.510;2023-08-01T03:45:43;6.87;;;2.57;;
27013;SDS011;14556;52.222;4.510;2023-08-01T03:48:10;4.20;;;1.97;;
27013;SDS011;14556;52.222;4.510;2023-08-01T03:50:38;9.67;;;2.50;;
27013;SDS011;14556;52.222;4.510;2023-08-01T03:53:04;5.03;;;1.97;;
27013;SDS011;14556;52.222;4.510;2023-08-01T03:55:32;6.03;;;2.00;;
27013;SDS011;14556;52.222;4.510;2023-08-01T03:58:01;5.10;;;1.93;;
27013;SDS011;14556;52.222;4.510;2023-08-01T04:00:29;5.77;;;2.03;;
27013;SDS011;14556;52.222;4.510;2023-08-01T04:02:59;2.47;;;1.63;;
27013;SDS011;14556;52.222;4.510;2023-08-01T04:05:26;2.70;;;1.70;;
27013;SDS011;14556;52.222;4.510;2023-08-01T04:07:53;6.73;;;2.30;;
27013;SDS011;14556;52.222;4.510;2023-08-01T04:10:21;4.67;;;2.10;;
27013;SDS011;14556;52.222;4.510;2023-08-01T04:12:48;4.27;;;1.73;;
27013;SDS011;14556;52.222;4.510;2023-08-01T04:15:15;4.90;;;1.83;;
27013;SDS011;14556;52.222;4.510;2023-08-01T04:17:41;5.23;;;2.30;;
27013;SDS011;14556;52.222;4.510;2023-08-01T04:20:08;3.83;;;2.13;;
27013;SDS011;14556;52.222;4.510;2023-08-01T04:22:35;4.13;;;1.77;;
27013;SDS011;14556;52.222;4.510;2023-08-01T04:25:01;4.53;;;1.93;;
27013;SDS011;14556;52.222;4.510;2023-08-01T04:27:29;3.33;;;1.73;;
27013;SDS011;14556;52.222;4.510;2023-08-01T04:29:56;5.67;;;1.60;;
27013;SDS011;14556;52.222;4.510;2023-08-01T04:32:23;4.23;;;1.40;;
27013;SDS011;14556;52.222;4.510;2023-08-01T04:34:49;4.07;;;1.80;;
27013;SDS011;14556;52.222;4.510;2023-08-01T04:37:17;6.47;;;2.00;;
27013;SDS011;14556;52.222;4.510;2023-08-01T04:39:46;8.57;;;1.80;;
27013;SDS011;14556;52.222;4.510;2023-08-01T04:42:13;3.17;;;1.60;;
27013;SDS011;14556;52.222;4.510;2023-08-01T04:44:40;4.83;;;1.27;;
27013;SDS011;14556;52.222;4.510;2023-08-01T04:47:07;4.60;;;1.43;;
27013;SDS011;14556;52.222;4.510;2023-08-01T04:49:33;6.53;;;2.10;;
27013;SDS011;14556;52.222;4.510;2023-08-01T04:52:00;4.70;;;1.80;;
27013;SDS011;14556;52.222;4.510;2023-08-01T04:54:26;2.90;;;1.77;;
27013;SDS011;14556;52.222;4.510;2023-08-01T04:56:53;3.23;;;1.70;;
27013;SDS011;14556;52.222;4.510;2023-08-01T04:59:21;5.47;;;1.30;;
27013;SDS011;14556;52.222;4.510;2023-08-01T05:01:47;3.13;;;1.60;;
27013;SDS011;14556;52.222;4.510;2023-08-01T05:04:14;3.77;;;1.20;;
27013;SDS011;14556;52.222;4.510;2023-08-01T05:06:42;3.77;;;1.60;;
27013;SDS011;14556;52.222;4.510;2023-08-01T05:09:09;3.37;;;1.30;;
27013;SDS011;14556;52.222;4.510;2023-08-01T05:11:35;5.77;;;1.40;;
27013;SDS011;14556;52.222;4.510;2023-08-01T05:14:03;4.50;;;1.60;;
27013;SDS011;14556;52.222;4.510;2023-08-01T05:16:32;4.47;;;1.70;;
27013;SDS011;14556;52.222;4.510;2023-08-01T05:18:59;4.93;;;1.90;;
27013;SDS011;14556;52.222;4.510;2023-08-01T05:21:25;5.37;;;1.60;;
27013;SDS011;14556;52.222;4.510;2023-08-01T05:23:52;2.63;;;1.40;;
27013;SDS011;14556;52.222;4.510;2023-08-01T05:26:18;4.50;;;1.50;;
27013;SDS011;14556;52.222;4.510;2023-08-01T05:28:45;2.63;;;1.40;;
27013;SDS011;14556;52.222;4.510;2023-08-01T05:31:11;4.73;;;1.20;;
27013;SDS011;14556;52.222;4.510;2023-08-01T05:33:38;3.57;;;1.23;;
27013;SDS011;14556;52.222;4.510;2023-08-01T05:36:05;3.53;;;1.50;;
27013;SDS011;14556;52.222;4.510;2023-08-01T05:38:31;5.53;;;1.47;;
27013;SDS011;14556;52.222;4.510;2023-08-01T05:40:58;6.10;;;1.47;;
27013;SDS011;14556;52.222;4.510;2023-08-01T05:43:24;2.30;;;1.00;;
27013;SDS011;14556;52.222;4.510;2023-08-01T05:45:51;3.07;;;1.00;;
27013;SDS011;14556;52.222;4.510;2023-08-01T05:48:19;3.40;;;1.10;;
27013;SDS011;14556;52.222;4.510;2023-08-01T05:50:45;10.60;;;2.63;;
27013;SDS011;14556;52.222;4.510;2023-08-01T05:53:12;4.33;;;1.50;;
27013;SDS011;14556;52.222;4.510;2023-08-01T05:55:38;3.50;;;1.30;;
27013;SDS011;14556;52.222;4.510;2023-08-01T05:58:05;4.33;;;1.17;;
27013;SDS011;14556;52.222;4.510;2023-08-01T06:00:32;3.57;;;1.10;;
27013;SDS011;14556;52.222;4.510;2023-08-01T06:03:00;4.07;;;1.60;;
27013;SDS011;14556;52.222;4.510;2023-08-01T06:05:27;5.10;;;1.50;;
27013;SDS011;14556;52.222;4.510;2023-08-01T06:07:54;2.57;;;1.40;;
27013;SDS011;14556;52.222;4.510;2023-08-01T06:10:21;3.60;;;1.40;;
27013;SDS011;14556;52.222;4.510;2023-08-01T06:12:48;3.37;;;1.40;;
27013;SDS011;14556;52.222;4.510;2023-08-01T06:15:15;4.70;;;1.40;;
27013;SDS011;14556;52.222;4.510;2023-08-01T06:17:42;4.40;;;1.20;;
27013;SDS011;14556;52.222;4.510;2023-08-01T06:20:08;3.10;;;1.57;;
27013;SDS011;14556;52.222;4.510;2023-08-01T06:22:37;7.17;;;2.40;;
27013;SDS011;14556;52.222;4.510;2023-08-01T06:25:04;4.03;;;1.73;;
27013;SDS011;14556;52.222;4.510;2023-08-01T06:27:31;2.60;;;1.70;;
27013;SDS011;14556;52.222;4.510;2023-08-01T06:29:59;2.83;;;1.23;;
27013;SDS011;14556;52.222;4.510;2023-08-01T06:32:26;5.50;;;1.60;;
27013;SDS011;14556;52.222;4.510;2023-08-01T06:34:53;4.50;;;1.47;;
27013;SDS011;14556;52.222;4.510;2023-08-01T06:37:19;7.67;;;1.63;;
27013;SDS011;14556;52.222;4.510;2023-08-01T06:39:46;3.73;;;1.90;;
27013;SDS011;14556;52.222;4.510;2023-08-01T06:42:13;7.83;;;1.73;;
27013;SDS011;14556;52.222;4.510;2023-08-01T06:44:39;2.63;;;1.50;;
27013;SDS011;14556;52.222;4.510;2023-08-01T06:47:06;3.97;;;1.47;;
27013;SDS011;14556;52.222;4.510;2023-08-01T06:49:33;3.30;;;1.50;;
27013;SDS011;14556;52.222;4.510;2023-08-01T06:52:00;2.17;;;1.47;;
27013;SDS011;14556;52.222;4.510;2023-08-01T06:54:26;4.87;;;1.70;;
27013;SDS011;14556;52.222;4.510;2023-08-01T06:56:53;4.10;;;1.70;;
27013;SDS011;14556;52.222;4.510;2023-08-01T06:59:20;3.60;;;1.43;;
27013;SDS011;14556;52.222;4.510;2023-08-01T07:01:47;3.80;;;1.47;;
27013;SDS011;14556;52.222;4.510;2023-08-01T07:04:13;3.37;;;1.50;;
27013;SDS011;14556;52.222;4.510;2023-08-01T07:06:40;4.60;;;1.70;;
27013;SDS011;14556;52.222;4.510;2023-08-01T07:09:07;3.47;;;1.77;;
27013;SDS011;14556;52.222;4.510;2023-08-01T07:11:34;5.30;;;1.90;;
27013;SDS011;14556;52.222;4.510;2023-08-01T07:14:00;3.03;;;1.47;;
27013;SDS011;14556;52.222;4.510;2023-08-01T07:16:27;3.70;;;1.13;;
27013;SDS011;14556;52.222;4.510;2023-08-01T07:18:57;5.10;;;1.80;;
27013;SDS011;14556;52.222;4.510;2023-08-01T07:21:26;4.20;;;1.70;;
27013;SDS011;14556;52.222;4.510;2023-08-01T07:23:52;3.97;;;1.83;;
27013;SDS011;14556;52.222;4.510;2023-08-01T07:26:19;3.80;;;1.50;;
27013;SDS011;14556;52.222;4.510;2023-08-01T07:28:48;3.90;;;1.77;;
27013;SDS011;14556;52.222;4.510;2023-08-01T07:31:17;4.17;;;1.40;;
27013;SDS011;14556;52.222;4.510;2023-08-01T07:33:44;2.70;;;1.50;;
27013;SDS011;14556;52.222;4.510;2023-08-01T07:36:12;3.97;;;1.53;;
27013;SDS011;14556;52.222;4.510;2023-08-01T07:38:39;4.50;;;1.80;;
27013;SDS011;14556;52.222;4.510;2023-08-01T07:41:06;2.87;;;1.63;;
27013;SDS011;14556;52.222;4.510;2023-08-01T07:43:33;2.77;;;1.20;;
27013;SDS011;14556;52.222;4.510;2023-08-01T07:46:01;3.50;;;1.50;;
27013;SDS011;14556;52.222;4.510;2023-08-01T07:48:28;5.60;;;1.63;;
27013;SDS011;14556;52.222;4.510;2023-08-01T07:50:55;2.63;;;1.37;;
27013;SDS011;14556;52.222;4.510;2023-08-01T07:53:21;3.77;;;1.50;;
27013;SDS011;14556;52.222;4.510;2023-08-01T07:55:48;4.07;;;1.83;;
27013;SDS011;14556;52.222;4.510;2023-08-01T07:58:16;3.87;;;1.63;;
27013;SDS011;14556;52.222;4.510;2023-08-01T08:00:45;2.90;;;1.53;;
27013;SDS011;14556;52.222;4.510;2023-08-01T08:03:11;5.87;;;2.37;;
27013;SDS011;14556;52.222;4.510;2023-08-01T08:05:38;1.73;;;1.20;;
27013;SDS011;14556;52.222;4.510;2023-08-01T08:08:09;6.70;;;1.30;;
27013;SDS011;14556;52.222;4.510;2023-08-01T08:10:35;6.00;;;1.37;;
27013;SDS011;14556;52.222;4.510;2023-08-01T08:13:02;2.97;;;1.23;;
27013;SDS011;14556;52.222;4.510;2023-08-01T08:15:29;6.93;;;1.50;;
27013;SDS011;14556;52.222;4.510;2023-08-01T08:18:00;3.20;;;1.20;;
27013;SDS011;14556;52.222;4.510;2023-08-01T08:20:31;4.23;;;1.27;;
27013;SDS011;14556;52.222;4.510;2023-08-01T08:22:58;2.73;;;1.40;;
27013;SDS011;14556;52.222;4.510;2023-08-01T08:25:25;3.27;;;1.20;;
27013;SDS011;14556;52.222;4.510;2023-08-01T08:27:53;6.10;;;1.73;;
27013;SDS011;14556;52.222;4.510;2023-08-01T08:30:20;4.67;;;2.00;;
27013;SDS011;14556;52.222;4.510;2023-08-01T08:32:47;7.00;;;1.30;;
27013;SDS011;14556;52.222;4.510;2023-08-01T08:35:14;8.97;;;2.30;;
27013;SDS011;14556;52.222;4.510;2023-08-01T08:37:41;3.87;;;1.20;;
27013;SDS011;14556;52.222;4.510;2023-08-01T08:40:09;9.00;;;1.47;;
27013;SDS011;14556;52.222;4.510;2023-08-01T08:42:36;3.63;;;1.67;;
27013;SDS011;14556;52.222;4.510;2023-08-01T08:45:03;5.40;;;1.60;;
27013;SDS011;14556;52.222;4.510;2023-08-01T08:47:34;4.97;;;1.40;;
27013;SDS011;14556;52.222;4.510;2023-08-01T08:50:04;8.23;;;1.90;;
27013;SDS011;14556;52.222;4.510;2023-08-01T08:52:33;3.77;;;1.97;;
27013;SDS011;14556;52.222;4.510;2023-08-01T08:55:00;3.47;;;1.30;;
27013;SDS011;14556;52.222;4.510;2023-08-01T08:57:29;1.90;;;1.30;;
27013;SDS011;14556;52.222;4.510;2023-08-01T08:59:57;5.17;;;1.40;;
27013;SDS011;14556;52.222;4.510;2023-08-01T09:02:26;3.07;;;1.30;;
27013;SDS011;14556;52.222;4.510;2023-08-01T09:04:52;3.10;;;1.57;;
27013;SDS011;14556;52.222;4.510;2023-08-01T09:07:19;1.53;;;1.20;;
27013;SDS011;14556;52.222;4.510;2023-08-01T09:09:52;3.63;;;1.27;;
27013;SDS011;14556;52.222;4.510;2023-08-01T09:12:20;4.90;;;1.77;;
27013;SDS011;14556;52.222;4.510;2023-08-01T09:14:48;5.50;;;2.00;;
27013;SDS011;14556;52.222;4.510;2023-08-01T09:17:16;5.77;;;1.83;;
27013;SDS011;14556;52.222;4.510;2023-08-01T09:19:45;4.00;;;1.63;;
27013;SDS011;14556;52.222;4.510;2023-08-01T09:22:12;4.57;;;1.57;;
27013;SDS011;14556;52.222;4.510;2023-08-01T09:24:49;7.43;;;1.97;;
27013;SDS011;14556;52.222;4.510;2023-08-01T09:27:17;5.37;;;1.50;;
27013;SDS011;14556;52.222;4.510;2023-08-01T09:29:45;2.30;;;1.10;;
27013;SDS011;14556;52.222;4.510;2023-08-01T09:32:13;3.20;;;1.60;;
27013;SDS011;14556;52.222;4.510;2023-08-01T09:34:40;5.77;;;1.47;;
27013;SDS011;14556;52.222;4.510;2023-08-01T09:37:07;3.83;;;1.30;;
27013;SDS011;14556;52.222;4.510;2023-08-01T09:39:36;3.20;;;1.30;;
27013;SDS011;14556;52.222;4.510;2023-08-01T09:42:03;5.37;;;1.73;;
27013;SDS011;14556;52.222;4.510;2023-08-01T09:44:29;7.37;;;1.93;;
27013;SDS011;14556;52.222;4.510;2023-08-01T09:49:29;6.70;;;2.53;;
27013;SDS011;14556;52.222;4.510;2023-08-01T09:51:57;4.73;;;1.60;;
27013;SDS011;14556;52.222;4.510;2023-08-01T09:54:24;3.57;;;1.17;;
27013;SDS011;14556;52.222;4.510;2023-08-01T09:56:52;4.70;;;1.50;;
27013;SDS011;14556;52.222;4.510;2023-08-01T09:59:20;3.53;;;1.53;;
27013;SDS011;14556;52.222;4.510;2023-08-01T10:01:49;5.73;;;1.63;;
27013;SDS011;14556;52.222;4.510;2023-08-01T10:04:21;6.00;;;1.60;;
27013;SDS011;14556;52.222;4.510;2023-08-01T10:06:53;5.20;;;1.80;;
27013;SDS011;14556;52.222;4.510;2023-08-01T10:09:25;3.10;;;1.30;;
27013;SDS011;14556;52.222;4.510;2023-08-01T10:11:52;2.20;;;1.50;;
27013;SDS011;14556;52.222;4.510;2023-08-01T10:14:20;5.57;;;1.33;;
27013;SDS011;14556;52.222;4.510;2023-08-01T10:16:46;3.63;;;1.23;;
27013;SDS011;14556;52.222;4.510;2023-08-01T10:19:13;3.50;;;1.57;;
27013;SDS011;14556;52.222;4.510;2023-08-01T10:21:41;3.20;;;1.50;;
27013;SDS011;14556;52.222;4.510;2023-08-01T10:24:09;5.70;;;1.37;;
27013;SDS011;14556;52.222;4.510;2023-08-01T10:26:37;3.70;;;1.33;;
27013;SDS011;14556;52.222;4.510;2023-08-01T10:29:04;4.17;;;1.27;;
27013;SDS011;14556;52.222;4.510;2023-08-01T10:31:31;3.37;;;1.17;;
27013;SDS011;14556;52.222;4.510;2023-08-01T10:34:05;3.53;;;1.50;;
27013;SDS011;14556;52.222;4.510;2023-08-01T10:36:41;4.17;;;1.40;;
27013;SDS011;14556;52.222;4.510;2023-08-01T10:39:07;5.27;;;1.60;;
27013;SDS011;14556;52.222;4.510;2023-08-01T10:41:34;3.20;;;1.60;;
27013;SDS011;14556;52.222;4.510;2023-08-01T10:44:10;1.50;;;1.10;;
27013;SDS011;14556;52.222;4.510;2023-08-01T10:46:51;2.80;;;1.07;;
27013;SDS011;14556;52.222;4.510;2023-08-01T10:49:20;4.37;;;1.10;;
27013;SDS011;14556;52.222;4.510;2023-08-01T10:51:58;4.83;;;1.67;;
27013;SDS011;14556;52.222;4.510;2023-08-01T10:54:26;5.43;;;1.80;;
27013;SDS011;14556;52.222;4.510;2023-08-01T10:56:55;6.00;;;1.77;;
27013;SDS011;14556;52.222;4.510;2023-08-01T10:59:24;6.03;;;1.37;;
27013;SDS011;14556;52.222;4.510;2023-08-01T11:01:52;2.30;;;1.23;;
27013;SDS011;14556;52.222;4.510;2023-08-01T11:04:21;4.97;;;1.60;;
27013;SDS011;14556;52.222;4.510;2023-08-01T11:06:50;8.23;;;1.60;;
27013;SDS011;14556;52.222;4.510;2023-08-01T11:09:25;2.07;;;1.20;;
27013;SDS011;14556;52.222;4.510;2023-08-01T11:11:54;3.93;;;1.50;;
27013;SDS011;14556;52.222;4.510;2023-08-01T11:14:26;2.53;;;1.30;;
27013;SDS011;14556;52.222;4.510;2023-08-01T11:16:54;3.13;;;1.53;;
27013;SDS011;14556;52.222;4.510;2023-08-01T11:19:26;2.97;;;1.17;;
27013;SDS011;14556;52.222;4.510;2023-08-01T11:21:54;2.83;;;1.10;;
27013;SDS011;14556;52.222;4.510;2023-08-01T11:24:23;3.57;;;1.30;;
27013;SDS011;14556;52.222;4.510;2023-08-01T11:26:51;4.93;;;1.17;;
27013;SDS011;14556;52.222;4.510;2023-08-01T11:29:19;5.07;;;1.87;;
27013;SDS011;14556;52.222;4.510;2023-08-01T11:31:56;3.23;;;1.20;;
27013;SDS011;14556;52.222;4.510;2023-08-01T11:34:24;3.00;;;1.40;;
27013;SDS011;14556;52.222;4.510;2023-08-01T11:36:52;2.73;;;0.93;;
27013;SDS011;14556;52.222;4.510;2023-08-01T11:39:20;1.87;;;0.90;;
27013;SDS011;14556;52.222;4.510;2023-08-01T11:41:49;5.57;;;1.10;;
27013;SDS011;14556;52.222;4.510;2023-08-01T11:44:15;1.70;;;0.90;;
27013;SDS011;14556;52.222;4.510;2023-08-01T11:46:42;2.63;;;1.20;;
27013;SDS011;14556;52.222;4.510;2023-08-01T11:49:09;3.70;;;1.27;;
27013;SDS011;14556;52.222;4.510;2023-08-01T11:51:44;7.60;;;2.07;;
27013;SDS011;14556;52.222;4.510;2023-08-01T11:54:13;5.83;;;1.17;;
27013;SDS011;14556;52.222;4.510;2023-08-01T11:56:41;3.10;;;1.07;;
27013;SDS011;14556;52.222;4.510;2023-08-01T11:59:15;2.50;;;1.03;;
27013;SDS011;14556;52.222;4.510;2023-08-01T12:01:44;3.00;;;1.03;;
27013;SDS011;14556;52.222;4.510;2023-08-01T12:04:35;7.93;;;1.67;;
27013;SDS011;14556;52.222;4.510;2023-08-01T12:07:01;2.57;;;1.13;;
27013;SDS011;14556;52.222;4.510;2023-08-01T12:09:31;4.83;;;1.23;;
27013;SDS011;14556;52.222;4.510;2023-08-01T12:11:59;5.90;;;1.47;;
27013;SDS011;14556;52.222;4.510;2023-08-01T12:14:30;5.93;;;1.10;;
27013;SDS011;14556;52.222;4.510;2023-08-01T12:16:57;2.93;;;1.30;;
27013;SDS011;14556;52.222;4.510;2023-08-01T12:19:23;6.20;;;1.30;;
27013;SDS011;14556;52.222;4.510;2023-08-01T12:21:51;3.63;;;1.23;;
27013;SDS011;14556;52.222;4.510;2023-08-01T12:24:17;2.77;;;1.30;;
27013;SDS011;14556;52.222;4.510;2023-08-01T12:26:45;5.40;;;1.50;;
27013;SDS011;14556;52.222;4.510;2023-08-01T12:29:12;2.50;;;1.00;;
27013;SDS011;14556;52.222;4.510;2023-08-01T12:31:38;2.57;;;1.17;;
27013;SDS011;14556;52.222;4.510;2023-08-01T12:34:08;6.30;;;1.73;;
27013;SDS011;14556;52.222;4.510;2023-08-01T12:36:35;1.67;;;0.70;;
27013;SDS011;14556;52.222;4.510;2023-08-01T12:39:02;3.47;;;1.13;;
27013;SDS011;14556;52.222;4.510;2023-08-01T12:41:30;3.60;;;1.20;;
27013;SDS011;14556;52.222;4.510;2023-08-01T12:43:57;4.10;;;1.10;;
27013;SDS011;14556;52.222;4.510;2023-08-01T12:46:25;2.33;;;1.23;;
27013;SDS011;14556;52.222;4.510;2023-08-01T12:48:52;4.23;;;1.13;;
27013;SDS011;14556;52.222;4.510;2023-08-01T12:51:19;4.67;;;1.50;;
27013;SDS011;14556;52.222;4.510;2023-08-01T12:53:48;4.50;;;1.40;;
27013;SDS011;14556;52.222;4.510;2023-08-01T12:56:15;5.63;;;1.40;;
27013;SDS011;14556;52.222;4.510;2023-08-01T12:58:42;3.50;;;1.53;;
27013;SDS011;14556;52.222;4.510;2023-08-01T13:01:09;2.90;;;1.40;;
27013;SDS011;14556;52.222;4.510;2023-08-01T13:03:35;4.50;;;1.60;;
27013;SDS011;14556;52.222;4.510;2023-08-01T13:06:03;4.83;;;1.50;;
27013;SDS011;14556;52.222;4.510;2023-08-01T13:08:30;1.97;;;1.13;;
27013;SDS011;14556;52.222;4.510;2023-08-01T13:10:58;3.90;;;1.20;;
27013;SDS011;14556;52.222;4.510;2023-08-01T13:13:26;2.47;;;1.00;;
27013;SDS011;14556;52.222;4.510;2023-08-01T13:15:53;2.50;;;0.90;;
27013;SDS011;14556;52.222;4.510;2023-08-01T13:18:19;2.67;;;1.13;;
27013;SDS011;14556;52.222;4.510;2023-08-01T13:20:46;5.20;;;1.00;;
27013;SDS011;14556;52.222;4.510;2023-08-01T13:23:13;3.77;;;1.30;;
27013;SDS011;14556;52.222;4.510;2023-08-01T13:25:40;0.83;;;0.60;;
27013;SDS011;14556;52.222;4.510;2023-08-01T13:28:08;2.80;;;0.87;;
27013;SDS011;14556;52.222;4.510;2023-08-01T13:30:35;3.30;;;1.13;;
27013;SDS011;14556;52.222;4.510;2023-08-01T13:33:01;3.37;;;1.17;;
27013;SDS011;14556;52.222;4.510;2023-08-01T13:35:28;3.67;;;1.00;;
27013;SDS011;14556;52.222;4.510;2023-08-01T13:37:56;10.30;;;1.47;;
27013;SDS011;14556;52.222;4.510;2023-08-01T13:40:25;2.97;;;1.20;;
27013;SDS011;14556;52.222;4.510;2023-08-01T13:42:55;4.57;;;1.50;;
27013;SDS011;14556;52.222;4.510;2023-08-01T13:45:21;4.47;;;1.50;;
27013;SDS011;14556;52.222;4.510;2023-08-01T13:47:48;3.83;;;1.20;;
27013;SDS011;14556;52.222;4.510;2023-08-01T13:50:15;3.47;;;1.07;;
27013;SDS011;14556;52.222;4.510;2023-08-01T13:52:41;3.10;;;0.80;;
27013;SDS011;14556;52.222;4.510;2023-08-01T13:55:08;2.80;;;1.13;;
27013;SDS011;14556;52.222;4.510;2023-08-01T13:57:36;7.30;;;1.40;;
27013;SDS011;14556;52.222;4.510;2023-08-01T14:00:02;4.53;;;1.37;;
27013;SDS011;14556;52.222;4.510;2023-08-01T14:02:39;4.40;;;1.20;;
27013;SDS011;14556;52.222;4.510;2023-08-01T14:05:05;3.93;;;0.90;;
27013;SDS011;14556;52.222;4.510;2023-08-01T14:07:34;5.70;;;1.30;;
27013;SDS011;14556;52.222;4.510;2023-08-01T14:10:02;6.47;;;1.27;;
27013;SDS011;14556;52.222;4.510;2023-08-01T14:12:29;3.23;;;1.10;;
27013;SDS011;14556;52.222;4.510;2023-08-01T14:14:56;3.07;;;1.00;;
27013;SDS011;14556;52.222;4.510;2023-08-01T14:17:22;4.50;;;1.67;;
27013;SDS011;14556;52.222;4.510;2023-08-01T14:19:49;2.00;;;0.87;;
27013;SDS011;14556;52.222;4.510;2023-08-01T14:22:15;6.17;;;1.30;;
27013;SDS011;14556;52.222;4.510;2023-08-01T14:24:43;7.17;;;1.23;;
27013;SDS011;14556;52.222;4.510;2023-08-01T14:27:10;5.93;;;1.77;;
27013;SDS011;14556;52.222;4.510;2023-08-01T14:29:37;2.13;;;1.13;;
27013;SDS011;14556;52.222;4.510;2023-08-01T14:32:06;1.27;;;1.00;;
27013;SDS011;14556;52.222;4.510;2023-08-01T14:34:33;5.67;;;1.10;;
27013;SDS011;14556;52.222;4.510;2023-08-01T14:36:59;5.07;;;1.10;;
27013;SDS011;14556;52.222;4.510;2023-08-01T14:39:27;2.23;;;0.87;;
27013;SDS011;14556;52.222;4.510;2023-08-01T14:41:53;2.07;;;0.97;;
27013;SDS011;14556;52.222;4.510;2023-08-01T14:44:30;2.03;;;1.33;;
27013;SDS011;14556;52.222;4.510;2023-08-01T14:46:57;6.50;;;1.23;;
27013;SDS011;14556;52.222;4.510;2023-08-01T14:49:24;2.87;;;0.80;;
27013;SDS011;14556;52.222;4.510;2023-08-01T14:51:55;3.80;;;1.10;;
27013;SDS011;14556;52.222;4.510;2023-08-01T14:54:21;2.83;;;0.83;;